createdAt,value
2022-12-18T00:00:07.673Z,101852.77
2022-12-18T00:05:11.088Z,101860.10
2022-12-18T00:10:15.364Z,101860.73
2022-12-18T00:15:18.824Z,101864.89
2022-12-18T00:20:26.716Z,101872.09
2022-12-18T00:25:30.138Z,101883.86
2022-12-18T00:30:33.496Z,101898.95
2022-12-18T00:35:36.784Z,101903.94
2022-12-18T00:40:40.215Z,101908.09
2022-12-18T00:45:43.518Z,101908.54
2022-12-18T00:50:46.963Z,101917.26
2022-12-18T00:55:50.242Z,101921.01
2022-12-18T01:00:53.885Z,101929.40
2022-12-18T01:05:57.297Z,101932.89
2022-12-18T01:11:00.607Z,101933.36
2022-12-18T01:16:04.152Z,101935.69
2022-12-18T01:21:13.811Z,101931.89
2022-12-18T01:26:17.604Z,101936.75
2022-12-18T01:31:24.347Z,101947.14
2022-12-18T01:36:30.858Z,101959.17
2022-12-18T01:41:54.193Z,101971.90
2022-12-18T01:46:57.479Z,101979.23
2022-12-18T01:52:00.804Z,101983.67
2022-12-18T01:57:04.287Z,101984.36
2022-12-18T02:02:08.954Z,101980.45
2022-12-18T02:07:36.830Z,101983.16
2022-12-18T02:12:58.317Z,101989.82
2022-12-18T02:18:11.788Z,101994.04
2022-12-18T02:23:36.733Z,101994.17
2022-12-18T02:29:15.515Z,102003.17
2022-12-18T02:34:21.459Z,102011.46
2022-12-18T02:39:28.261Z,102011.12
2022-12-18T02:44:31.590Z,102012.32
2022-12-18T02:50:12.126Z,102011.96
2022-12-18T02:55:21.693Z,102026.02
2022-12-18T03:00:34.944Z,102037.30
2022-12-18T03:05:48.644Z,102040.55
2022-12-18T03:11:01.148Z,102048.64
2022-12-18T03:16:09.486Z,102054.39
2022-12-18T03:21:14.966Z,102058.81
2022-12-18T03:26:23.172Z,102070.80
2022-12-18T03:31:29.901Z,102060.54
2022-12-18T03:36:33.552Z,102063.06
2022-12-18T03:42:01.864Z,102070.45
2022-12-18T03:47:16.481Z,102071.56
2022-12-18T03:52:36.749Z,102080.21
2022-12-18T03:57:44.282Z,102088.42
2022-12-18T04:02:53.394Z,102094.95
2022-12-18T04:07:58.242Z,102093.56
2022-12-18T04:13:01.617Z,102088.66
2022-12-18T04:18:05.039Z,102097.08
2022-12-18T04:23:08.399Z,102103.70
2022-12-18T04:28:11.892Z,102107.67
2022-12-18T04:33:15.653Z,102107.29
2022-12-18T04:38:19.421Z,102113.25
2022-12-18T04:43:22.766Z,102128.63
2022-12-18T04:48:26.875Z,102136.07
2022-12-18T04:53:30.269Z,102141.09
2022-12-18T04:58:33.622Z,102142.91
2022-12-18T05:03:38.641Z,102143.17
2022-12-18T05:08:42.252Z,102148.59
2022-12-18T05:13:46.709Z,102144.75
2022-12-18T05:18:50.003Z,102152.63
2022-12-18T05:23:53.337Z,102157.70
2022-12-18T05:28:56.613Z,102162.84
2022-12-18T05:33:59.906Z,102167.02
2022-12-18T05:39:03.345Z,102176.95
2022-12-18T05:44:07.218Z,102187.06
2022-12-18T05:49:10.518Z,102193.61
2022-12-18T05:54:13.848Z,102191.73
2022-12-18T05:59:17.078Z,102197.49
2022-12-18T06:04:20.507Z,102200.05
2022-12-18T06:09:24.512Z,102203.98
2022-12-18T06:14:27.895Z,102216.14
2022-12-18T06:19:31.181Z,102219.02
2022-12-18T06:24:34.551Z,102227.30
2022-12-18T06:29:37.812Z,102231.23
2022-12-18T06:34:41.162Z,102228.30
2022-12-18T06:39:44.839Z,102231.58
2022-12-18T06:44:48.413Z,102242.02
2022-12-18T06:49:51.734Z,102242.46
2022-12-18T06:54:55.120Z,102253.02
2022-12-18T06:59:58.375Z,102257.81
2022-12-18T07:05:07.474Z,102267.50
2022-12-18T07:10:16.950Z,102279.18
2022-12-18T07:15:20.231Z,102287.02
2022-12-18T07:20:23.609Z,102295.15
2022-12-18T07:25:26.982Z,102300.98
2022-12-18T07:30:30.401Z,102305.06
2022-12-18T07:35:35.285Z,102312.81
2022-12-18T07:40:38.832Z,102319.16
2022-12-18T07:45:44.539Z,102322.41
2022-12-18T07:50:48.218Z,102327.09
2022-12-18T07:56:25.948Z,102329.73
2022-12-18T08:01:24.007Z,102324.09
2022-12-18T08:06:27.579Z,102328.30
2022-12-18T08:11:31.340Z,102325.56
2022-12-18T08:16:34.949Z,102324.41
2022-12-18T08:21:38.999Z,102330.82
2022-12-18T08:26:45.578Z,102345.83
2022-12-18T08:31:55.575Z,102348.96
2022-12-18T08:36:58.968Z,102361.14
2022-12-18T08:42:21.374Z,102365.76
2022-12-18T08:47:24.954Z,102377.48
2022-12-18T08:52:29.521Z,102386.02
2022-12-18T08:57:32.873Z,102392.20
2022-12-18T09:02:36.453Z,102389.89
2022-12-18T09:07:40.219Z,102403.86
2022-12-18T09:12:43.635Z,102413.67
2022-12-18T09:17:47.078Z,102414.27
2022-12-18T09:22:51.099Z,102402.58
2022-12-18T09:27:54.318Z,102396.89
2022-12-18T09:32:58.653Z,102413.42
2022-12-18T09:38:01.990Z,102419.83
2022-12-18T09:43:08.205Z,102418.20
2022-12-18T09:48:21.252Z,102421.11
2022-12-18T09:53:29.772Z,102430.84
2022-12-18T09:58:42.115Z,102430.56
2022-12-18T10:03:45.849Z,102430.73
2022-12-18T10:09:16.951Z,102412.18
2022-12-18T10:14:45.922Z,102410.33
2022-12-18T10:19:55.023Z,102411.31
2022-12-18T10:25:08.541Z,102413.66
2022-12-18T10:30:18.334Z,102406.85
2022-12-18T10:35:25.522Z,102404.33
2022-12-18T10:40:29.018Z,102407.69
2022-12-18T10:45:32.469Z,102408.48
2022-12-18T10:56:06.186Z,102399.98
2022-12-18T11:01:14.768Z,102407.05
2022-12-18T11:06:23.155Z,102416.23
2022-12-18T11:11:27.063Z,102409.13
2022-12-18T11:16:36.354Z,102409.17
2022-12-18T11:21:44.261Z,102414.05
2022-12-18T11:26:47.885Z,102415.45
2022-12-18T11:31:51.327Z,102427.58
2022-12-18T11:36:56.100Z,102424.48
2022-12-18T11:42:10.261Z,102428.66
2022-12-18T11:47:27.452Z,102423.16
2022-12-18T11:52:52.866Z,102421.26
2022-12-18T11:58:31.313Z,102424.87
2022-12-18T12:04:00.642Z,102439.67
2022-12-18T12:09:22.707Z,102452.03
2022-12-18T12:14:47.595Z,102453.11
2022-12-18T12:20:13.835Z,102456.15
2022-12-18T12:25:32.192Z,102464.95
2022-12-18T12:31:03.333Z,102469.98
2022-12-18T12:36:35.714Z,102474.73
2022-12-18T12:42:01.426Z,102474.16
2022-12-18T12:47:44.008Z,102466.49
2022-12-18T12:52:52.442Z,102461.89
2022-12-18T12:58:04.992Z,102466.13
2022-12-18T13:03:25.451Z,102468.35
2022-12-18T13:08:33.288Z,102465.46
2022-12-18T13:13:58.164Z,102476.36
2022-12-18T13:19:02.424Z,102483.63
2022-12-18T13:24:28.641Z,102488.26
2022-12-18T13:29:45.102Z,102503.91
2022-12-18T13:34:48.925Z,102502.61
2022-12-18T13:39:52.379Z,102501.88
2022-12-18T13:44:55.936Z,102510.01
2022-12-18T13:50:00.382Z,102509.30
2022-12-18T13:55:08.240Z,102507.97
2022-12-18T14:00:31.492Z,102513.81
2022-12-18T14:05:40.233Z,102526.66
2022-12-18T14:10:50.796Z,102540.40
2022-12-18T14:15:55.373Z,102546.64
2022-12-18T14:21:03.278Z,102550.05
2022-12-18T14:26:24.712Z,102559.08
2022-12-18T14:31:30.708Z,102566.50
2022-12-18T14:36:34.260Z,102565.13
2022-12-18T14:41:37.736Z,102570.84
2022-12-18T14:46:44.149Z,102566.44
2022-12-18T14:51:51.552Z,102573.42
2022-12-18T14:57:06.678Z,102564.94
2022-12-18T15:02:27.069Z,102572.78
2022-12-18T15:07:46.785Z,102569.72
2022-12-18T15:12:51.762Z,102573.27
2022-12-18T15:17:59.765Z,102575.59
2022-12-18T15:23:03.091Z,102578.46
2022-12-18T15:28:37.852Z,102578.92
2022-12-18T15:33:54.329Z,102573.05
2022-12-18T15:39:05.056Z,102571.92
2022-12-18T15:44:39.195Z,102574.73
2022-12-18T15:49:42.449Z,102574.58
2022-12-18T15:55:04.789Z,102565.57
2022-12-18T16:00:13.365Z,102570.77
2022-12-18T16:05:18.993Z,102571.95
2022-12-18T16:10:22.866Z,102572.55
2022-12-18T16:15:26.199Z,102565.76
2022-12-18T16:20:29.524Z,102570.89
2022-12-18T16:25:33.147Z,102580.56
2022-12-18T16:30:37.832Z,102580.77
2022-12-18T16:35:42.035Z,102572.83
2022-12-18T16:41:05.027Z,102579.85
2022-12-18T16:46:08.426Z,102574.35
2022-12-18T16:51:11.766Z,102571.30
2022-12-18T16:56:15.043Z,102576.46
2022-12-18T17:01:18.669Z,102577.27
2022-12-18T17:06:23.127Z,102581.29
2022-12-18T17:11:28.209Z,102588.67
2022-12-18T17:16:32.762Z,102612.23
2022-12-18T17:21:37.158Z,102623.36
2022-12-18T17:26:42.130Z,102614.94
2022-12-18T17:31:45.687Z,102603.45
2022-12-18T17:36:49.039Z,102607.70
2022-12-18T17:41:52.605Z,102606.23
2022-12-18T17:46:56.557Z,102590.06
2022-12-18T17:51:59.905Z,102577.83
2022-12-18T17:57:03.227Z,102576.48
2022-12-18T18:02:10.277Z,102567.14
2022-12-18T18:07:14.396Z,102567.65
2022-12-18T18:12:36.611Z,102583.11
2022-12-18T18:17:40.114Z,102569.54
2022-12-18T18:22:45.363Z,102559.94
2022-12-18T18:27:48.706Z,102557.43
2022-12-18T18:32:53.120Z,102565.16
2022-12-18T18:37:57.848Z,102566.36
2022-12-18T18:43:01.101Z,102573.30
2022-12-18T18:48:06.288Z,102586.45
2022-12-18T18:53:09.693Z,102588.19
2022-12-18T18:58:13.153Z,102593.42
2022-12-18T19:03:17.113Z,102586.62
2022-12-18T19:08:24.098Z,102579.70
2022-12-18T19:13:30.761Z,102583.71
2022-12-18T19:18:35.609Z,102585.24
2022-12-18T19:23:39.396Z,102584.67
2022-12-18T19:28:46.461Z,102591.37
2022-12-18T19:33:49.791Z,102602.39
2022-12-18T19:38:55.136Z,102606.93
2022-12-18T19:43:58.933Z,102609.42
2022-12-18T19:49:02.654Z,102619.05
2022-12-18T19:54:06.143Z,102619.70
2022-12-18T19:59:10.334Z,102628.17
2022-12-18T20:04:13.785Z,102629.14
2022-12-18T20:09:18.423Z,102619.37
2022-12-18T20:14:23.710Z,102622.93
2022-12-18T20:19:27.383Z,102619.73
2022-12-18T20:24:34.422Z,102611.13
2022-12-18T20:29:37.858Z,102612.63
2022-12-18T20:34:41.552Z,102603.86
2022-12-18T20:39:45.319Z,102595.05
2022-12-18T20:44:48.653Z,102595.95
2022-12-18T20:49:52.133Z,102600.73
2022-12-18T20:54:55.872Z,102608.17
2022-12-18T21:00:00.929Z,102620.08
2022-12-18T21:05:05.062Z,102617.49
2022-12-18T21:10:08.821Z,102611.33
2022-12-18T21:15:12.399Z,102591.46
2022-12-18T21:20:17.999Z,102576.95
2022-12-18T21:25:22.528Z,102569.91
2022-12-18T21:30:25.950Z,102565.80
2022-12-18T21:35:29.430Z,102568.02
2022-12-18T21:40:35.856Z,102561.56
2022-12-18T21:45:41.575Z,102564.19
2022-12-18T21:50:45.914Z,102575.35
2022-12-18T21:55:58.445Z,102587.98
2022-12-18T22:01:02.378Z,102598.52
2022-12-18T22:06:09.680Z,102595.79
2022-12-18T22:11:13.840Z,102594.58
2022-12-18T22:16:18.018Z,102590.61
2022-12-18T22:21:34.222Z,102598.40
2022-12-18T22:26:40.127Z,102597.70
2022-12-18T22:31:44.297Z,102593.20
2022-12-18T22:36:49.110Z,102584.76
2022-12-18T22:41:53.166Z,102587.70
2022-12-18T22:47:06.487Z,102587.19
2022-12-18T22:52:10.812Z,102585.25
2022-12-18T22:57:14.219Z,102587.02
2022-12-18T23:02:19.422Z,102594.27
2022-12-18T23:07:23.132Z,102594.39
2022-12-18T23:12:26.381Z,102599.09
2022-12-18T23:17:30.063Z,102597.83
2022-12-18T23:22:33.326Z,102594.10
2022-12-18T23:27:36.588Z,102595.39
2022-12-18T23:32:41.641Z,102597.73
2022-12-18T23:38:02.121Z,102596.83
2022-12-18T23:43:05.447Z,102596.41
2022-12-18T23:48:08.776Z,102589.10
2022-12-18T23:53:12.914Z,102580.23
2022-12-18T23:58:21.399Z,102576.88
